Arlington Heights, Ohio
Current Conditions -  °F | °C
As of 9:53 AM on Saturday 20 Dec 2014 (Local Time) from KHAO Reporting Station
Overcast Overcast  
Wind Chill: 32°   Ceiling: 2000
Heat Index: 32°   Visibility: 8mi
Dew Point: 25°   Wind: 3mph
Humidity: 75%   Direction: 50°NE
Pressure: 30.31"   Gusts: NA
Location:  39.236°N, 84.4599°W
Report Text: KHAO 201453Z AUTO 05003KT 8SM OVC020 00/M04 A3031 RMK AO2 SLP270 T00001039 50004
Loading
Personal Weather Stations






























Interactive Weather Map New forecast layout! Learn more

10-Day Weather Forecast

Advertisements
Track Severe Weather on mobile